sensor_id;sensor_type;location;lat;lon;timestamp;temperature;humidity
4759;DHT22;2393;50.560;12.636;2024-03-08T00:01:26;-1.70;99.90
4759;DHT22;2393;50.560;12.636;2024-03-08T00:03:55;-1.70;99.90
4759;DHT22;2393;50.560;12.636;2024-03-08T00:06:24;-1.70;99.90
4759;DHT22;2393;50.560;12.636;2024-03-08T00:08:53;-1.70;99.90
4759;DHT22;2393;50.560;12.636;2024-03-08T00:11:23;-1.70;99.90
4759;DHT22;2393;50.560;12.636;2024-03-08T00:13:53;-1.70;99.90
4759;DHT22;2393;50.560;12.636;2024-03-08T00:16:21;-1.70;99.90
4759;DHT22;2393;50.560;12.636;2024-03-08T00:18:51;-1.70;99.90
4759;DHT22;2393;50.560;12.636;2024-03-08T00:21:19;-1.70;99.90
4759;DHT22;2393;50.560;12.636;2024-03-08T00:23:48;-1.70;99.90
4759;DHT22;2393;50.560;12.636;2024-03-08T00:26:16;-1.70;99.90
4759;DHT22;2393;50.560;12.636;2024-03-08T00:28:46;-1.70;99.90
4759;DHT22;2393;50.560;12.636;2024-03-08T00:31:15;-1.70;99.90
4759;DHT22;2393;50.560;12.636;2024-03-08T00:33:45;-1.70;99.90
4759;DHT22;2393;50.560;12.636;2024-03-08T00:36:14;-1.70;99.90
4759;DHT22;2393;50.560;12.636;2024-03-08T00:38:42;-1.70;99.90
4759;DHT22;2393;50.560;12.636;2024-03-08T00:41:11;-1.70;99.90
4759;DHT22;2393;50.560;12.636;2024-03-08T00:43:40;-1.70;99.90
4759;DHT22;2393;50.560;12.636;2024-03-08T00:46:09;-1.70;99.90
4759;DHT22;2393;50.560;12.636;2024-03-08T00:48:39;-1.70;99.90
4759;DHT22;2393;50.560;12.636;2024-03-08T00:51:10;-1.70;99.90
4759;DHT22;2393;50.560;12.636;2024-03-08T00:53:39;-1.70;99.90
4759;DHT22;2393;50.560;12.636;2024-03-08T00:56:08;-1.70;99.90
4759;DHT22;2393;50.560;12.636;2024-03-08T00:58:38;-1.70;99.90
4759;DHT22;2393;50.560;12.636;2024-03-08T01:01:06;-1.70;99.90
4759;DHT22;2393;50.560;12.636;2024-03-08T01:03:37;-1.70;99.90
4759;DHT22;2393;50.560;12.636;2024-03-08T01:06:06;-1.70;99.90
4759;DHT22;2393;50.560;12.636;2024-03-08T01:08:35;-1.70;99.90
4759;DHT22;2393;50.560;12.636;2024-03-08T01:11:05;-1.70;99.90
4759;DHT22;2393;50.560;12.636;2024-03-08T01:13:35;-1.70;99.90
4759;DHT22;2393;50.560;12.636;2024-03-08T01:16:04;-1.70;99.90
4759;DHT22;2393;50.560;12.636;2024-03-08T01:18:32;-1.70;99.90
4759;DHT22;2393;50.560;12.636;2024-03-08T01:21:02;-1.80;99.90
4759;DHT22;2393;50.560;12.636;2024-03-08T01:23:31;-1.80;99.90
4759;DHT22;2393;50.560;12.636;2024-03-08T01:26:01;-1.90;99.90
4759;DHT22;2393;50.560;12.636;2024-03-08T01:28:30;-2.00;99.90
4759;DHT22;2393;50.560;12.636;2024-03-08T01:31:01;-2.00;99.90
4759;DHT22;2393;50.560;12.636;2024-03-08T01:33:30;-2.00;99.90
4759;DHT22;2393;50.560;12.636;2024-03-08T01:35:59;-2.10;99.90
4759;DHT22;2393;50.560;12.636;2024-03-08T01:38:29;-2.10;99.90
4759;DHT22;2393;50.560;12.636;2024-03-08T01:40:58;-2.10;99.90
4759;DHT22;2393;50.560;12.636;2024-03-08T01:43:28;-2.10;99.90
4759;DHT22;2393;50.560;12.636;2024-03-08T01:45:57;-2.10;99.90
4759;DHT22;2393;50.560;12.636;2024-03-08T01:48:27;-2.10;99.90
4759;DHT22;2393;50.560;12.636;2024-03-08T01:50:57;-2.10;99.90
4759;DHT22;2393;50.560;12.636;2024-03-08T01:53:26;-2.10;99.90
4759;DHT22;2393;50.560;12.636;2024-03-08T01:55:57;-2.10;99.90
4759;DHT22;2393;50.560;12.636;2024-03-08T01:58:27;-2.10;99.90
4759;DHT22;2393;50.560;12.636;2024-03-08T02:00:57;-2.10;99.90
4759;DHT22;2393;50.560;12.636;2024-03-08T02:03:26;-2.10;99.90
4759;DHT22;2393;50.560;12.636;2024-03-08T02:05:55;-2.10;99.90
4759;DHT22;2393;50.560;12.636;2024-03-08T02:08:24;-2.10;99.90
4759;DHT22;2393;50.560;12.636;2024-03-08T02:10:53;-2.20;99.90
4759;DHT22;2393;50.560;12.636;2024-03-08T02:13:23;-2.20;99.90
4759;DHT22;2393;50.560;12.636;2024-03-08T02:15:52;-2.20;99.90
4759;DHT22;2393;50.560;12.636;2024-03-08T02:18:22;-2.20;99.90
4759;DHT22;2393;50.560;12.636;2024-03-08T02:20:53;-2.20;99.90
4759;DHT22;2393;50.560;12.636;2024-03-08T02:23:23;-2.20;99.90
4759;DHT22;2393;50.560;12.636;2024-03-08T02:25:54;-2.20;99.90
4759;DHT22;2393;50.560;12.636;2024-03-08T02:28:23;-2.20;99.90
4759;DHT22;2393;50.560;12.636;2024-03-08T02:30:52;-2.20;99.90
4759;DHT22;2393;50.560;12.636;2024-03-08T02:33:23;-2.20;99.90
4759;DHT22;2393;50.560;12.636;2024-03-08T02:35:53;-2.20;99.90
4759;DHT22;2393;50.560;12.636;2024-03-08T02:38:23;-2.20;99.90
4759;DHT22;2393;50.560;12.636;2024-03-08T02:40:53;-2.20;99.90
4759;DHT22;2393;50.560;12.636;2024-03-08T02:43:22;-2.10;99.90
4759;DHT22;2393;50.560;12.636;2024-03-08T02:45:52;-2.20;99.90
4759;DHT22;2393;50.560;12.636;2024-03-08T02:48:21;-2.10;99.90
4759;DHT22;2393;50.560;12.636;2024-03-08T02:50:52;-2.10;99.90
4759;DHT22;2393;50.560;12.636;2024-03-08T02:53:21;-2.20;99.90
4759;DHT22;2393;50.560;12.636;2024-03-08T02:55:52;-2.20;99.90
4759;DHT22;2393;50.560;12.636;2024-03-08T02:58:20;-2.20;99.90
4759;DHT22;2393;50.560;12.636;2024-03-08T03:00:49;-2.20;99.90
4759;DHT22;2393;50.560;12.636;2024-03-08T03:03:17;-2.20;99.90
4759;DHT22;2393;50.560;12.636;2024-03-08T03:05:46;-2.20;99.90
4759;DHT22;2393;50.560;12.636;2024-03-08T03:08:17;-2.20;99.90
4759;DHT22;2393;50.560;12.636;2024-03-08T03:10:46;-2.10;99.90
4759;DHT22;2393;50.560;12.636;2024-03-08T03:13:15;-2.10;99.90
4759;DHT22;2393;50.560;12.636;2024-03-08T03:15:43;-2.10;99.90
4759;DHT22;2393;50.560;12.636;2024-03-08T03:18:12;-2.10;99.90
4759;DHT22;2393;50.560;12.636;2024-03-08T03:20:40;-2.00;99.90
4759;DHT22;2393;50.560;12.636;2024-03-08T03:23:10;-2.00;99.90
4759;DHT22;2393;50.560;12.636;2024-03-08T03:25:44;-2.10;99.90
4759;DHT22;2393;50.560;12.636;2024-03-08T03:28:13;-2.00;99.90
4759;DHT22;2393;50.560;12.636;2024-03-08T03:30:45;-2.00;99.90
4759;DHT22;2393;50.560;12.636;2024-03-08T03:33:15;-2.00;99.90
4759;DHT22;2393;50.560;12.636;2024-03-08T03:35:45;-2.00;99.90
4759;DHT22;2393;50.560;12.636;2024-03-08T03:38:13;-2.10;99.90
4759;DHT22;2393;50.560;12.636;2024-03-08T03:40:43;-2.10;99.90
4759;DHT22;2393;50.560;12.636;2024-03-08T03:43:13;-2.10;99.90
4759;DHT22;2393;50.560;12.636;2024-03-08T03:45:42;-2.10;99.90
4759;DHT22;2393;50.560;12.636;2024-03-08T03:48:10;-2.10;99.90
4759;DHT22;2393;50.560;12.636;2024-03-08T03:50:40;-2.10;99.90
4759;DHT22;2393;50.560;12.636;2024-03-08T03:53:09;-2.10;99.90
4759;DHT22;2393;50.560;12.636;2024-03-08T03:55:39;-2.10;99.90
4759;DHT22;2393;50.560;12.636;2024-03-08T03:58:09;-2.10;99.90
4759;DHT22;2393;50.560;12.636;2024-03-08T04:00:39;-2.10;99.90
4759;DHT22;2393;50.560;12.636;2024-03-08T04:03:08;-2.10;99.90
4759;DHT22;2393;50.560;12.636;2024-03-08T04:05:36;-2.20;99.90
4759;DHT22;2393;50.560;12.636;2024-03-08T04:08:05;-2.20;99.90
4759;DHT22;2393;50.560;12.636;2024-03-08T04:10:33;-2.20;99.90
4759;DHT22;2393;50.560;12.636;2024-03-08T04:13:02;-2.20;99.90
4759;DHT22;2393;50.560;12.636;2024-03-08T04:15:32;-2.20;99.90
4759;DHT22;2393;50.560;12.636;2024-03-08T04:18:01;-2.30;99.90
4759;DHT22;2393;50.560;12.636;2024-03-08T04:20:30;-2.30;99.90
4759;DHT22;2393;50.560;12.636;2024-03-08T04:22:59;-2.30;99.90
4759;DHT22;2393;50.560;12.636;2024-03-08T04:25:28;-2.20;99.90
4759;DHT22;2393;50.560;12.636;2024-03-08T04:27:56;-2.20;99.90
4759;DHT22;2393;50.560;12.636;2024-03-08T04:30:25;-2.20;99.90
4759;DHT22;2393;50.560;12.636;2024-03-08T04:32:56;-2.20;99.90
4759;DHT22;2393;50.560;12.636;2024-03-08T04:35:25;-2.20;99.90
4759;DHT22;2393;50.560;12.636;2024-03-08T04:37:54;-2.20;99.90
4759;DHT22;2393;50.560;12.636;2024-03-08T04:40:24;-2.20;99.90
4759;DHT22;2393;50.560;12.636;2024-03-08T04:42:54;-2.20;99.90
4759;DHT22;2393;50.560;12.636;2024-03-08T04:45:22;-2.20;99.90
4759;DHT22;2393;50.560;12.636;2024-03-08T04:47:53;-2.30;99.90
4759;DHT22;2393;50.560;12.636;2024-03-08T04:50:23;-2.30;99.90
4759;DHT22;2393;50.560;12.636;2024-03-08T04:52:51;-2.30;99.90
4759;DHT22;2393;50.560;12.636;2024-03-08T04:55:21;-2.40;99.90
4759;DHT22;2393;50.560;12.636;2024-03-08T04:57:50;-2.40;99.90
4759;DHT22;2393;50.560;12.636;2024-03-08T05:00:18;-2.50;99.90
4759;DHT22;2393;50.560;12.636;2024-03-08T05:02:48;-2.50;99.90
4759;DHT22;2393;50.560;12.636;2024-03-08T05:05:20;-2.50;99.90
4759;DHT22;2393;50.560;12.636;2024-03-08T05:07:51;-2.50;99.90
4759;DHT22;2393;50.560;12.636;2024-03-08T05:10:20;-2.50;99.90
4759;DHT22;2393;50.560;12.636;2024-03-08T05:12:49;-2.50;99.90
4759;DHT22;2393;50.560;12.636;2024-03-08T05:15:20;-2.50;99.90
4759;DHT22;2393;50.560;12.636;2024-03-08T05:17:49;-2.50;99.90
4759;DHT22;2393;50.560;12.636;2024-03-08T05:20:18;-2.50;99.90
4759;DHT22;2393;50.560;12.636;2024-03-08T05:22:46;-2.40;99.90
4759;DHT22;2393;50.560;12.636;2024-03-08T05:25:16;-2.30;99.90
4759;DHT22;2393;50.560;12.636;2024-03-08T05:27:45;-2.20;99.90
4759;DHT22;2393;50.560;12.636;2024-03-08T05:30:15;-2.00;99.90
4759;DHT22;2393;50.560;12.636;2024-03-08T05:32:44;-1.90;99.90
4759;DHT22;2393;50.560;12.636;2024-03-08T05:35:13;-1.70;99.90
4759;DHT22;2393;50.560;12.636;2024-03-08T05:37:43;-1.60;99.90
4759;DHT22;2393;50.560;12.636;2024-03-08T05:40:13;-1.40;99.90
4759;DHT22;2393;50.560;12.636;2024-03-08T05:42:46;-1.30;99.90
4759;DHT22;2393;50.560;12.636;2024-03-08T05:45:15;-1.20;99.90
4759;DHT22;2393;50.560;12.636;2024-03-08T05:47:44;-1.10;99.90
4759;DHT22;2393;50.560;12.636;2024-03-08T05:50:13;-1.00;99.90
4759;DHT22;2393;50.560;12.636;2024-03-08T05:52:44;-0.90;99.90
4759;DHT22;2393;50.560;12.636;2024-03-08T05:55:12;-0.90;99.90
4759;DHT22;2393;50.560;12.636;2024-03-08T05:57:41;-0.80;99.90
4759;DHT22;2393;50.560;12.636;2024-03-08T06:00:12;-0.70;99.90
4759;DHT22;2393;50.560;12.636;2024-03-08T06:02:43;-0.70;99.90
4759;DHT22;2393;50.560;12.636;2024-03-08T06:05:11;-0.60;99.90
4759;DHT22;2393;50.560;12.636;2024-03-08T06:07:40;-0.60;99.90
4759;DHT22;2393;50.560;12.636;2024-03-08T06:10:09;-0.60;99.90
4759;DHT22;2393;50.560;12.636;2024-03-08T06:12:40;-0.50;99.90
4759;DHT22;2393;50.560;12.636;2024-03-08T06:15:10;-0.40;99.90
4759;DHT22;2393;50.560;12.636;2024-03-08T06:17:43;-0.40;99.90
4759;DHT22;2393;50.560;12.636;2024-03-08T06:20:11;-0.30;99.90
4759;DHT22;2393;50.560;12.636;2024-03-08T06:22:41;-0.20;99.90
4759;DHT22;2393;50.560;12.636;2024-03-08T06:25:10;-0.10;99.90
4759;DHT22;2393;50.560;12.636;2024-03-08T06:27:41;0.00;99.90
4759;DHT22;2393;50.560;12.636;2024-03-08T06:30:12;0.00;99.90
4759;DHT22;2393;50.560;12.636;2024-03-08T06:32:43;0.10;99.90
4759;DHT22;2393;50.560;12.636;2024-03-08T06:35:12;0.30;99.90
4759;DHT22;2393;50.560;12.636;2024-03-08T06:37:43;0.60;99.90
4759;DHT22;2393;50.560;12.636;2024-03-08T06:40:13;1.00;99.90
4759;DHT22;2393;50.560;12.636;2024-03-08T06:42:42;1.60;99.90
4759;DHT22;2393;50.560;12.636;2024-03-08T06:45:12;2.20;99.90
4759;DHT22;2393;50.560;12.636;2024-03-08T06:47:46;2.70;99.90
4759;DHT22;2393;50.560;12.636;2024-03-08T06:50:15;3.30;99.90
4759;DHT22;2393;50.560;12.636;2024-03-08T06:52:43;3.70;99.90
4759;DHT22;2393;50.560;12.636;2024-03-08T06:55:15;4.00;99.90
4759;DHT22;2393;50.560;12.636;2024-03-08T06:57:44;4.70;99.90
4759;DHT22;2393;50.560;12.636;2024-03-08T07:00:15;5.80;99.90
4759;DHT22;2393;50.560;12.636;2024-03-08T07:02:48;6.50;99.90
4759;DHT22;2393;50.560;12.636;2024-03-08T07:05:17;7.30;99.90
4759;DHT22;2393;50.560;12.636;2024-03-08T07:07:46;8.00;99.90
4759;DHT22;2393;50.560;12.636;2024-03-08T07:10:16;8.90;99.90
4759;DHT22;2393;50.560;12.636;2024-03-08T07:12:45;9.60;99.90
4759;DHT22;2393;50.560;12.636;2024-03-08T07:15:15;10.40;99.90
4759;DHT22;2393;50.560;12.636;2024-03-08T07:17:47;11.10;99.90
4759;DHT22;2393;50.560;12.636;2024-03-08T07:20:16;11.80;99.90
4759;DHT22;2393;50.560;12.636;2024-03-08T07:22:46;12.50;99.90
4759;DHT22;2393;50.560;12.636;2024-03-08T07:25:18;13.10;99.90
4759;DHT22;2393;50.560;12.636;2024-03-08T07:27:51;13.70;99.90
4759;DHT22;2393;50.560;12.636;2024-03-08T07:30:22;14.30;99.90
4759;DHT22;2393;50.560;12.636;2024-03-08T07:33:10;14.60;99.90
4759;DHT22;2393;50.560;12.636;2024-03-08T07:35:41;14.80;98.60
4759;DHT22;2393;50.560;12.636;2024-03-08T07:38:11;14.60;96.90
4759;DHT22;2393;50.560;12.636;2024-03-08T07:40:41;14.60;96.40
4759;DHT22;2393;50.560;12.636;2024-03-08T07:43:12;14.20;95.60
4759;DHT22;2393;50.560;12.636;2024-03-08T07:45:42;12.90;95.20
4759;DHT22;2393;50.560;12.636;2024-03-08T07:48:10;11.20;95.90
4759;DHT22;2393;50.560;12.636;2024-03-08T07:50:40;10.70;98.30
4759;DHT22;2393;50.560;12.636;2024-03-08T07:53:09;10.70;98.30
4759;DHT22;2393;50.560;12.636;2024-03-08T07:55:38;10.40;98.40
4759;DHT22;2393;50.560;12.636;2024-03-08T07:58:10;9.40;99.80
4759;DHT22;2393;50.560;12.636;2024-03-08T08:00:41;9.30;99.90
4759;DHT22;2393;50.560;12.636;2024-03-08T08:03:10;8.90;99.90
4759;DHT22;2393;50.560;12.636;2024-03-08T08:05:40;9.00;99.90
4759;DHT22;2393;50.560;12.636;2024-03-08T08:08:09;8.40;99.90
4759;DHT22;2393;50.560;12.636;2024-03-08T08:10:39;8.20;99.90
4759;DHT22;2393;50.560;12.636;2024-03-08T08:13:07;8.20;99.90
4759;DHT22;2393;50.560;12.636;2024-03-08T08:15:37;8.00;99.90
4759;DHT22;2393;50.560;12.636;2024-03-08T08:18:07;8.00;99.90
4759;DHT22;2393;50.560;12.636;2024-03-08T08:20:37;7.90;99.90
4759;DHT22;2393;50.560;12.636;2024-03-08T08:23:05;7.60;99.90
4759;DHT22;2393;50.560;12.636;2024-03-08T08:25:34;7.80;99.90
4759;DHT22;2393;50.560;12.636;2024-03-08T08:28:07;7.90;99.90
4759;DHT22;2393;50.560;12.636;2024-03-08T08:30:35;8.20;99.90
4759;DHT22;2393;50.560;12.636;2024-03-08T08:33:06;8.50;99.90
4759;DHT22;2393;50.560;12.636;2024-03-08T08:35:36;8.50;99.90
4759;DHT22;2393;50.560;12.636;2024-03-08T08:38:04;8.30;99.90
4759;DHT22;2393;50.560;12.636;2024-03-08T08:40:34;8.40;99.90
4759;DHT22;2393;50.560;12.636;2024-03-08T08:43:04;8.60;99.90
4759;DHT22;2393;50.560;12.636;2024-03-08T08:45:32;8.60;99.90
4759;DHT22;2393;50.560;12.636;2024-03-08T08:48:01;8.70;99.90
4759;DHT22;2393;50.560;12.636;2024-03-08T08:50:31;8.80;99.90
4759;DHT22;2393;50.560;12.636;2024-03-08T08:53:00;8.90;99.90
4759;DHT22;2393;50.560;12.636;2024-03-08T08:55:29;8.70;99.90
4759;DHT22;2393;50.560;12.636;2024-03-08T08:57:58;8.70;99.90
4759;DHT22;2393;50.560;12.636;2024-03-08T09:00:26;9.00;99.90
4759;DHT22;2393;50.560;12.636;2024-03-08T09:02:58;9.10;99.90
4759;DHT22;2393;50.560;12.636;2024-03-08T09:05:26;9.10;99.90
4759;DHT22;2393;50.560;12.636;2024-03-08T09:07:56;9.10;99.90
4759;DHT22;2393;50.560;12.636;2024-03-08T09:10:25;9.10;99.90
4759;DHT22;2393;50.560;12.636;2024-03-08T09:12:57;9.40;99.90
4759;DHT22;2393;50.560;12.636;2024-03-08T09:15:26;9.60;99.90
4759;DHT22;2393;50.560;12.636;2024-03-08T09:17:56;9.80;99.90
4759;DHT22;2393;50.560;12.636;2024-03-08T09:20:26;9.70;99.90
4759;DHT22;2393;50.560;12.636;2024-03-08T09:22:57;9.20;99.90
4759;DHT22;2393;50.560;12.636;2024-03-08T09:25:25;8.80;99.90
4759;DHT22;2393;50.560;12.636;2024-03-08T09:27:55;8.90;99.90
4759;DHT22;2393;50.560;12.636;2024-03-08T09:30:24;8.70;99.90
4759;DHT22;2393;50.560;12.636;2024-03-08T09:32:53;8.50;99.90
4759;DHT22;2393;50.560;12.636;2024-03-08T09:35:25;8.60;99.90
4759;DHT22;2393;50.560;12.636;2024-03-08T09:37:54;8.90;99.90
4759;DHT22;2393;50.560;12.636;2024-03-08T09:40:24;9.20;99.90
4759;DHT22;2393;50.560;12.636;2024-03-08T09:42:54;9.20;99.90
4759;DHT22;2393;50.560;12.636;2024-03-08T09:45:25;9.10;99.90
4759;DHT22;2393;50.560;12.636;2024-03-08T09:47:54;9.20;99.90
4759;DHT22;2393;50.560;12.636;2024-03-08T09:50:23;9.30;99.90
4759;DHT22;2393;50.560;12.636;2024-03-08T09:52:53;9.60;99.90
4759;DHT22;2393;50.560;12.636;2024-03-08T09:55:26;10.00;99.90
4759;DHT22;2393;50.560;12.636;2024-03-08T09:58:02;10.40;99.90
4759;DHT22;2393;50.560;12.636;2024-03-08T10:00:58;10.10;99.90
4759;DHT22;2393;50.560;12.636;2024-03-08T10:03:29;10.10;99.90
4759;DHT22;2393;50.560;12.636;2024-03-08T10:05:59;10.30;99.90
4759;DHT22;2393;50.560;12.636;2024-03-08T10:08:28;10.20;99.90
4759;DHT22;2393;50.560;12.636;2024-03-08T10:10:59;10.30;99.90
4759;DHT22;2393;50.560;12.636;2024-03-08T10:13:29;10.40;99.90
4759;DHT22;2393;50.560;12.636;2024-03-08T10:15:59;10.60;99.90
4759;DHT22;2393;50.560;12.636;2024-03-08T10:18:28;10.30;99.90
4759;DHT22;2393;50.560;12.636;2024-03-08T10:21:04;10.40;99.90
4759;DHT22;2393;50.560;12.636;2024-03-08T10:23:34;10.30;99.90
4759;DHT22;2393;50.560;12.636;2024-03-08T10:26:12;10.40;99.90
4759;DHT22;2393;50.560;12.636;2024-03-08T10:28:43;10.70;99.90
4759;DHT22;2393;50.560;12.636;2024-03-08T10:31:12;10.70;99.90
4759;DHT22;2393;50.560;12.636;2024-03-08T10:33:45;10.80;99.90
4759;DHT22;2393;50.560;12.636;2024-03-08T10:36:14;11.10;99.90
4759;DHT22;2393;50.560;12.636;2024-03-08T10:38:44;11.20;99.90
4759;DHT22;2393;50.560;12.636;2024-03-08T10:41:16;11.20;99.90
4759;DHT22;2393;50.560;12.636;2024-03-08T10:43:57;11.30;99.90
4759;DHT22;2393;50.560;12.636;2024-03-08T10:46:42;11.10;99.20
4759;DHT22;2393;50.560;12.636;2024-03-08T10:49:17;10.70;99.70
4759;DHT22;2393;50.560;12.636;2024-03-08T10:51:46;10.50;99.90
4759;DHT22;2393;50.560;12.636;2024-03-08T10:54:19;10.40;99.90
4759;DHT22;2393;50.560;12.636;2024-03-08T10:56:51;10.60;99.90
4759;DHT22;2393;50.560;12.636;2024-03-08T10:59:21;10.40;99.90
4759;DHT22;2393;50.560;12.636;2024-03-08T11:01:50;10.60;99.90
4759;DHT22;2393;50.560;12.636;2024-03-08T11:04:19;10.80;99.90
4759;DHT22;2393;50.560;12.636;2024-03-08T11:06:51;11.10;99.90
4759;DHT22;2393;50.560;12.636;2024-03-08T11:09:28;11.10;99.60
4759;DHT22;2393;50.560;12.636;2024-03-08T11:12:25;11.40;99.90
4759;DHT22;2393;50.560;12.636;2024-03-08T11:14:54;11.50;98.40
4759;DHT22;2393;50.560;12.636;2024-03-08T11:17:39;11.30;98.90
4759;DHT22;2393;50.560;12.636;2024-03-08T11:20:11;11.10;97.30
4759;DHT22;2393;50.560;12.636;2024-03-08T11:22:48;10.90;98.20
4759;DHT22;2393;50.560;12.636;2024-03-08T11:25:32;11.00;99.60
4759;DHT22;2393;50.560;12.636;2024-03-08T11:28:11;11.20;98.90
4759;DHT22;2393;50.560;12.636;2024-03-08T11:30:45;11.00;99.00
4759;DHT22;2393;50.560;12.636;2024-03-08T11:33:15;10.80;98.40
4759;DHT22;2393;50.560;12.636;2024-03-08T11:35:44;10.50;99.20
4759;DHT22;2393;50.560;12.636;2024-03-08T11:38:13;10.60;99.20
4759;DHT22;2393;50.560;12.636;2024-03-08T11:40:46;10.60;99.20
4759;DHT22;2393;50.560;12.636;2024-03-08T11:43:18;10.70;99.70
4759;DHT22;2393;50.560;12.636;2024-03-08T11:45:47;10.80;99.70
4759;DHT22;2393;50.560;12.636;2024-03-08T11:48:16;11.10;99.90
4759;DHT22;2393;50.560;12.636;2024-03-08T11:50:45;11.10;98.00
4759;DHT22;2393;50.560;12.636;2024-03-08T11:53:16;11.10;99.00
4759;DHT22;2393;50.560;12.636;2024-03-08T11:55:45;11.10;99.30
4759;DHT22;2393;50.560;12.636;2024-03-08T11:58:15;11.10;99.30
4759;DHT22;2393;50.560;12.636;2024-03-08T12:00:46;11.10;99.10
4759;DHT22;2393;50.560;12.636;2024-03-08T12:03:16;11.00;99.60
4759;DHT22;2393;50.560;12.636;2024-03-08T12:05:45;11.00;99.90
4759;DHT22;2393;50.560;12.636;2024-03-08T12:08:14;11.20;99.90
4759;DHT22;2393;50.560;12.636;2024-03-08T12:10:43;11.30;99.90
4759;DHT22;2393;50.560;12.636;2024-03-08T12:13:11;11.20;99.50
4759;DHT22;2393;50.560;12.636;2024-03-08T12:15:41;11.10;98.60
4759;DHT22;2393;50.560;12.636;2024-03-08T12:18:12;11.20;99.30
4759;DHT22;2393;50.560;12.636;2024-03-08T12:20:41;11.40;99.90
4759;DHT22;2393;50.560;12.636;2024-03-08T12:23:16;11.40;99.10
4759;DHT22;2393;50.560;12.636;2024-03-08T12:25:44;11.30;99.90
4759;DHT22;2393;50.560;12.636;2024-03-08T12:28:15;11.00;99.90
4759;DHT22;2393;50.560;12.636;2024-03-08T12:30:48;10.80;99.90
4759;DHT22;2393;50.560;12.636;2024-03-08T12:33:23;10.60;99.90
4759;DHT22;2393;50.560;12.636;2024-03-08T12:35:52;10.60;99.90
4759;DHT22;2393;50.560;12.636;2024-03-08T12:38:23;10.40;99.90
4759;DHT22;2393;50.560;12.636;2024-03-08T12:40:59;10.20;99.90
4759;DHT22;2393;50.560;12.636;2024-03-08T12:43:28;10.00;99.90
4759;DHT22;2393;50.560;12.636;2024-03-08T12:45:58;9.70;99.90
4759;DHT22;2393;50.560;12.636;2024-03-08T12:48:34;9.70;99.90
4759;DHT22;2393;50.560;12.636;2024-03-08T12:51:03;9.60;99.90
4759;DHT22;2393;50.560;12.636;2024-03-08T12:53:33;9.60;99.90
4759;DHT22;2393;50.560;12.636;2024-03-08T12:56:02;9.80;99.90
4759;DHT22;2393;50.560;12.636;2024-03-08T12:58:35;9.80;99.90
4759;DHT22;2393;50.560;12.636;2024-03-08T13:01:04;9.90;99.90
4759;DHT22;2393;50.560;12.636;2024-03-08T13:03:36;10.10;99.90
4759;DHT22;2393;50.560;12.636;2024-03-08T13:06:05;10.10;99.90
4759;DHT22;2393;50.560;12.636;2024-03-08T13:08:35;10.00;99.90
4759;DHT22;2393;50.560;12.636;2024-03-08T13:11:06;10.00;99.90
4759;DHT22;2393;50.560;12.636;2024-03-08T13:13:35;9.90;99.90
4759;DHT22;2393;50.560;12.636;2024-03-08T13:16:06;9.90;99.90
4759;DHT22;2393;50.560;12.636;2024-03-08T13:18:37;10.10;99.90
4759;DHT22;2393;50.560;12.636;2024-03-08T13:21:07;10.30;99.90
4759;DHT22;2393;50.560;12.636;2024-03-08T13:23:37;10.30;99.90
4759;DHT22;2393;50.560;12.636;2024-03-08T13:26:07;9.90;99.90
4759;DHT22;2393;50.560;12.636;2024-03-08T13:28:38;10.10;99.90
4759;DHT22;2393;50.560;12.636;2024-03-08T13:31:07;10.30;99.90
4759;DHT22;2393;50.560;12.636;2024-03-08T13:33:39;10.40;99.90
4759;DHT22;2393;50.560;12.636;2024-03-08T13:36:09;10.20;99.90
4759;DHT22;2393;50.560;12.636;2024-03-08T13:38:42;9.90;99.90
4759;DHT22;2393;50.560;12.636;2024-03-08T13:41:12;9.90;99.90
4759;DHT22;2393;50.560;12.636;2024-03-08T13:43:42;9.80;99.90
4759;DHT22;2393;50.560;12.636;2024-03-08T13:46:10;9.80;99.90
4759;DHT22;2393;50.560;12.636;2024-03-08T13:48:41;9.80;99.90
4759;DHT22;2393;50.560;12.636;2024-03-08T13:51:10;10.00;99.90
4759;DHT22;2393;50.560;12.636;2024-03-08T13:53:42;10.20;99.90
4759;DHT22;2393;50.560;12.636;2024-03-08T13:56:11;10.00;99.90
4759;DHT22;2393;50.560;12.636;2024-03-08T13:58:41;9.60;99.90
4759;DHT22;2393;50.560;12.636;2024-03-08T14:01:11;9.70;99.90
4759;DHT22;2393;50.560;12.636;2024-03-08T14:03:41;9.80;99.90
4759;DHT22;2393;50.560;12.636;2024-03-08T14:06:10;9.80;99.90
4759;DHT22;2393;50.560;12.636;2024-03-08T14:08:49;9.40;99.90
4759;DHT22;2393;50.560;12.636;2024-03-08T14:11:18;9.50;99.90
4759;DHT22;2393;50.560;12.636;2024-03-08T14:13:47;9.30;99.90
4759;DHT22;2393;50.560;12.636;2024-03-08T14:16:16;9.20;99.90
4759;DHT22;2393;50.560;12.636;2024-03-08T14:18:46;9.10;99.90
4759;DHT22;2393;50.560;12.636;2024-03-08T14:21:15;8.80;99.90
4759;DHT22;2393;50.560;12.636;2024-03-08T14:23:44;8.90;99.90
4759;DHT22;2393;50.560;12.636;2024-03-08T14:26:15;9.00;99.90
4759;DHT22;2393;50.560;12.636;2024-03-08T14:28:44;9.00;99.90
4759;DHT22;2393;50.560;12.636;2024-03-08T14:31:13;9.10;99.90
4759;DHT22;2393;50.560;12.636;2024-03-08T14:33:47;9.00;99.90
4759;DHT22;2393;50.560;12.636;2024-03-08T14:36:16;8.80;99.90
4759;DHT22;2393;50.560;12.636;2024-03-08T14:38:47;8.70;99.90
4759;DHT22;2393;50.560;12.636;2024-03-08T14:41:16;8.50;99.90
4759;DHT22;2393;50.560;12.636;2024-03-08T14:43:45;8.40;99.90
4759;DHT22;2393;50.560;12.636;2024-03-08T14:46:15;8.50;99.90
4759;DHT22;2393;50.560;12.636;2024-03-08T14:48:44;8.40;99.90
4759;DHT22;2393;50.560;12.636;2024-03-08T14:51:19;8.30;99.90
4759;DHT22;2393;50.560;12.636;2024-03-08T14:53:49;8.10;99.90
4759;DHT22;2393;50.560;12.636;2024-03-08T14:56:18;8.20;99.90
4759;DHT22;2393;50.560;12.636;2024-03-08T14:58:46;8.10;99.90
4759;DHT22;2393;50.560;12.636;2024-03-08T15:01:17;8.00;99.90
4759;DHT22;2393;50.560;12.636;2024-03-08T15:03:49;7.80;99.90
4759;DHT22;2393;50.560;12.636;2024-03-08T15:06:19;7.80;99.90
4759;DHT22;2393;50.560;12.636;2024-03-08T15:08:48;7.90;99.90
4759;DHT22;2393;50.560;12.636;2024-03-08T15:11:17;7.80;99.90
4759;DHT22;2393;50.560;12.636;2024-03-08T15:13:49;7.90;99.90
4759;DHT22;2393;50.560;12.636;2024-03-08T15:16:20;7.90;99.90
4759;DHT22;2393;50.560;12.636;2024-03-08T15:18:51;8.00;99.90
4759;DHT22;2393;50.560;12.636;2024-03-08T15:21:22;7.90;99.90
4759;DHT22;2393;50.560;12.636;2024-03-08T15:23:53;8.10;99.90
4759;DHT22;2393;50.560;12.636;2024-03-08T15:26:22;8.00;99.90
4759;DHT22;2393;50.560;12.636;2024-03-08T15:28:53;8.00;99.90
4759;DHT22;2393;50.560;12.636;2024-03-08T15:31:23;8.10;99.90
4759;DHT22;2393;50.560;12.636;2024-03-08T15:33:53;8.00;99.90
4759;DHT22;2393;50.560;12.636;2024-03-08T15:36:29;7.60;99.90
4759;DHT22;2393;50.560;12.636;2024-03-08T15:39:04;7.50;99.90
4759;DHT22;2393;50.560;12.636;2024-03-08T15:41:37;7.30;99.90
4759;DHT22;2393;50.560;12.636;2024-03-08T15:44:06;7.20;99.90
4759;DHT22;2393;50.560;12.636;2024-03-08T15:46:39;7.10;99.90
4759;DHT22;2393;50.560;12.636;2024-03-08T15:49:07;6.90;99.90
4759;DHT22;2393;50.560;12.636;2024-03-08T15:51:39;6.90;99.90
4759;DHT22;2393;50.560;12.636;2024-03-08T15:54:08;7.00;99.90
4759;DHT22;2393;50.560;12.636;2024-03-08T15:56:37;6.80;99.90
4759;DHT22;2393;50.560;12.636;2024-03-08T15:59:06;6.90;99.90
4759;DHT22;2393;50.560;12.636;2024-03-08T16:01:36;6.90;99.90
4759;DHT22;2393;50.560;12.636;2024-03-08T16:04:05;6.70;99.90
4759;DHT22;2393;50.560;12.636;2024-03-08T16:06:34;6.70;99.90
4759;DHT22;2393;50.560;12.636;2024-03-08T16:09:08;6.60;99.90
4759;DHT22;2393;50.560;12.636;2024-03-08T16:11:40;6.40;99.90